sensor_id;sensor_type;location;lat;lon;timestamp;P1;durP1;ratioP1;P2;durP2;ratioP2
16634;SDS011;8431;52.458;9.998;2023-12-07T15:37:53;20.20;;;18.60;;
16634;SDS011;8431;52.458;9.998;2023-12-07T15:40:23;20.58;;;18.98;;
16634;SDS011;8431;52.458;9.998;2023-12-07T15:42:49;20.50;;;18.92;;
16634;SDS011;8431;52.458;9.998;2023-12-07T15:45:16;21.25;;;19.48;;
16634;SDS011;8431;52.458;9.998;2023-12-07T15:47:43;20.88;;;19.08;;
16634;SDS011;8431;52.458;9.998;2023-12-07T15:50:14;21.33;;;19.33;;
16634;SDS011;8431;52.458;9.998;2023-12-07T15:52:41;20.48;;;18.70;;
16634;SDS011;8431;52.458;9.998;2023-12-07T15:55:09;20.35;;;18.45;;
16634;SDS011;8431;52.458;9.998;2023-12-07T15:57:36;21.90;;;19.83;;
16634;SDS011;8431;52.458;9.998;2023-12-07T16:00:04;26.15;;;21.60;;
16634;SDS011;8431;52.458;9.998;2023-12-07T16:02:50;23.45;;;20.98;;
16634;SDS011;8431;52.458;9.998;2023-12-07T16:05:18;28.45;;;24.75;;
16634;SDS011;8431;52.458;9.998;2023-12-07T16:10:51;24.25;;;20.75;;
16634;SDS011;8431;52.458;9.998;2023-12-07T16:13:17;23.70;;;19.98;;
16634;SDS011;8431;52.458;9.998;2023-12-07T16:15:44;21.98;;;19.67;;
16634;SDS011;8431;52.458;9.998;2023-12-07T16:18:11;23.33;;;20.83;;
16634;SDS011;8431;52.458;9.998;2023-12-07T16:20:37;21.52;;;19.27;;
16634;SDS011;8431;52.458;9.998;2023-12-07T16:23:04;22.60;;;20.23;;
16634;SDS011;8431;52.458;9.998;2023-12-07T16:25:32;22.92;;;20.52;;
16634;SDS011;8431;52.458;9.998;2023-12-07T16:28:01;23.08;;;20.83;;
16634;SDS011;8431;52.458;9.998;2023-12-07T16:30:28;22.98;;;19.85;;
16634;SDS011;8431;52.458;9.998;2023-12-07T16:32:55;23.85;;;20.20;;
16634;SDS011;8431;52.458;9.998;2023-12-07T16:35:22;23.80;;;18.98;;
16634;SDS011;8431;52.458;9.998;2023-12-07T16:37:48;22.83;;;18.77;;
16634;SDS011;8431;52.458;9.998;2023-12-07T16:40:15;21.80;;;19.58;;
16634;SDS011;8431;52.458;9.998;2023-12-07T16:42:42;24.85;;;19.80;;
16634;SDS011;8431;52.458;9.998;2023-12-07T16:45:10;24.55;;;20.45;;
16634;SDS011;8431;52.458;9.998;2023-12-07T16:47:49;26.00;;;21.95;;
16634;SDS011;8431;52.458;9.998;2023-12-07T16:50:22;25.30;;;21.55;;
16634;SDS011;8431;52.458;9.998;2023-12-07T16:52:49;24.17;;;21.58;;
16634;SDS011;8431;52.458;9.998;2023-12-07T16:55:15;25.48;;;21.70;;
16634;SDS011;8431;52.458;9.998;2023-12-07T16:57:42;23.45;;;20.92;;
16634;SDS011;8431;52.458;9.998;2023-12-07T17:00:11;25.13;;;22.45;;
16634;SDS011;8431;52.458;9.998;2023-12-07T17:02:39;22.63;;;20.50;;
16634;SDS011;8431;52.458;9.998;2023-12-07T17:05:05;24.98;;;20.33;;
16634;SDS011;8431;52.458;9.998;2023-12-07T17:07:33;24.98;;;20.95;;
16634;SDS011;8431;52.458;9.998;2023-12-07T17:09:59;26.08;;;20.52;;
16634;SDS011;8431;52.458;9.998;2023-12-07T17:12:26;26.60;;;20.67;;
16634;SDS011;8431;52.458;9.998;2023-12-07T17:14:53;22.73;;;20.25;;
16634;SDS011;8431;52.458;9.998;2023-12-07T17:17:21;23.70;;;21.25;;
16634;SDS011;8431;52.458;9.998;2023-12-07T17:19:48;24.80;;;21.85;;
16634;SDS011;8431;52.458;9.998;2023-12-07T17:22:14;25.88;;;21.27;;
16634;SDS011;8431;52.458;9.998;2023-12-07T17:24:41;22.58;;;20.20;;
16634;SDS011;8431;52.458;9.998;2023-12-07T17:27:08;21.70;;;19.42;;
16634;SDS011;8431;52.458;9.998;2023-12-07T17:29:35;24.02;;;20.30;;
16634;SDS011;8431;52.458;9.998;2023-12-07T17:32:02;22.75;;;20.30;;
16634;SDS011;8431;52.458;9.998;2023-12-07T17:34:31;25.50;;;20.67;;
16634;SDS011;8431;52.458;9.998;2023-12-07T17:36:58;24.33;;;19.77;;
16634;SDS011;8431;52.458;9.998;2023-12-07T17:39:25;22.13;;;19.65;;
16634;SDS011;8431;52.458;9.998;2023-12-07T17:41:52;23.83;;;21.30;;
16634;SDS011;8431;52.458;9.998;2023-12-07T17:44:18;22.52;;;20.13;;
16634;SDS011;8431;52.458;9.998;2023-12-07T17:46:45;23.73;;;20.08;;
16634;SDS011;8431;52.458;9.998;2023-12-07T17:49:12;22.90;;;20.10;;
16634;SDS011;8431;52.458;9.998;2023-12-07T17:51:42;22.08;;;19.67;;
16634;SDS011;8431;52.458;9.998;2023-12-07T17:54:10;23.50;;;21.10;;
16634;SDS011;8431;52.458;9.998;2023-12-07T17:56:43;23.60;;;21.33;;
16634;SDS011;8431;52.458;9.998;2023-12-07T17:59:10;23.30;;;21.05;;
16634;SDS011;8431;52.458;9.998;2023-12-07T18:01:38;22.55;;;20.27;;
16634;SDS011;8431;52.458;9.998;2023-12-07T18:04:05;21.58;;;18.63;;
16634;SDS011;8431;52.458;9.998;2023-12-07T18:06:32;22.83;;;19.77;;
16634;SDS011;8431;52.458;9.998;2023-12-07T18:09:00;24.17;;;19.38;;
16634;SDS011;8431;52.458;9.998;2023-12-07T18:11:27;20.23;;;18.10;;
16634;SDS011;8431;52.458;9.998;2023-12-07T18:13:54;21.83;;;19.63;;
16634;SDS011;8431;52.458;9.998;2023-12-07T18:16:21;23.50;;;19.17;;
16634;SDS011;8431;52.458;9.998;2023-12-07T18:18:49;23.25;;;20.75;;
16634;SDS011;8431;52.458;9.998;2023-12-07T18:21:16;23.55;;;21.08;;
16634;SDS011;8431;52.458;9.998;2023-12-07T18:23:43;22.27;;;19.88;;
16634;SDS011;8431;52.458;9.998;2023-12-07T18:26:13;23.67;;;21.20;;
16634;SDS011;8431;52.458;9.998;2023-12-07T18:28:45;23.70;;;21.13;;
16634;SDS011;8431;52.458;9.998;2023-12-07T18:31:12;21.73;;;19.65;;
16634;SDS011;8431;52.458;9.998;2023-12-07T18:33:39;23.35;;;20.85;;
16634;SDS011;8431;52.458;9.998;2023-12-07T18:36:07;24.77;;;22.17;;
16634;SDS011;8431;52.458;9.998;2023-12-07T18:38:34;29.42;;;24.17;;
16634;SDS011;8431;52.458;9.998;2023-12-07T18:41:01;28.30;;;22.90;;
16634;SDS011;8431;52.458;9.998;2023-12-07T18:43:29;29.25;;;22.63;;
16634;SDS011;8431;52.458;9.998;2023-12-07T18:45:59;24.67;;;21.90;;
16634;SDS011;8431;52.458;9.998;2023-12-07T18:48:35;23.55;;;20.90;;
16634;SDS011;8431;52.458;9.998;2023-12-07T18:51:08;22.88;;;20.58;;
16634;SDS011;8431;52.458;9.998;2023-12-07T18:53:38;21.17;;;18.95;;
16634;SDS011;8431;52.458;9.998;2023-12-07T18:56:08;20.50;;;18.33;;
16634;SDS011;8431;52.458;9.998;2023-12-07T18:58:37;22.13;;;19.90;;
16634;SDS011;8431;52.458;9.998;2023-12-07T19:01:07;21.90;;;18.80;;
16634;SDS011;8431;52.458;9.998;2023-12-07T19:03:34;23.38;;;21.10;;
16634;SDS011;8431;52.458;9.998;2023-12-07T19:06:01;21.63;;;19.52;;
16634;SDS011;8431;52.458;9.998;2023-12-07T19:08:28;21.88;;;19.88;;
16634;SDS011;8431;52.458;9.998;2023-12-07T19:10:55;23.48;;;21.20;;
16634;SDS011;8431;52.458;9.998;2023-12-07T19:13:22;23.88;;;21.58;;
16634;SDS011;8431;52.458;9.998;2023-12-07T19:15:50;23.25;;;20.95;;
16634;SDS011;8431;52.458;9.998;2023-12-07T19:18:17;21.17;;;18.88;;
16634;SDS011;8431;52.458;9.998;2023-12-07T19:20:47;21.40;;;19.50;;
16634;SDS011;8431;52.458;9.998;2023-12-07T19:23:14;21.85;;;19.52;;
16634;SDS011;8431;52.458;9.998;2023-12-07T19:25:40;21.10;;;18.88;;
16634;SDS011;8431;52.458;9.998;2023-12-07T19:28:07;20.90;;;18.92;;
16634;SDS011;8431;52.458;9.998;2023-12-07T19:30:33;20.63;;;18.58;;
16634;SDS011;8431;52.458;9.998;2023-12-07T19:33:01;20.10;;;18.17;;
16634;SDS011;8431;52.458;9.998;2023-12-07T19:35:28;19.63;;;17.60;;
16634;SDS011;8431;52.458;9.998;2023-12-07T19:38:01;19.63;;;17.73;;
16634;SDS011;8431;52.458;9.998;2023-12-07T19:40:37;20.45;;;18.40;;
16634;SDS011;8431;52.458;9.998;2023-12-07T19:43:05;20.85;;;18.77;;
16634;SDS011;8431;52.458;9.998;2023-12-07T19:45:32;22.02;;;19.90;;
16634;SDS011;8431;52.458;9.998;2023-12-07T19:48:03;20.45;;;18.58;;
16634;SDS011;8431;52.458;9.998;2023-12-07T19:50:30;19.52;;;17.52;;
16634;SDS011;8431;52.458;9.998;2023-12-07T19:52:57;18.65;;;17.00;;
16634;SDS011;8431;52.458;9.998;2023-12-07T19:55:24;19.63;;;17.77;;
16634;SDS011;8431;52.458;9.998;2023-12-07T19:57:56;20.35;;;18.40;;
16634;SDS011;8431;52.458;9.998;2023-12-07T20:00:28;22.02;;;19.02;;
16634;SDS011;8431;52.458;9.998;2023-12-07T20:02:55;20.73;;;18.60;;
16634;SDS011;8431;52.458;9.998;2023-12-07T20:05:23;18.95;;;17.25;;
16634;SDS011;8431;52.458;9.998;2023-12-07T20:07:50;20.40;;;18.50;;
16634;SDS011;8431;52.458;9.998;2023-12-07T20:10:17;20.58;;;18.40;;
16634;SDS011;8431;52.458;9.998;2023-12-07T20:12:47;20.65;;;18.75;;
16634;SDS011;8431;52.458;9.998;2023-12-07T20:15:14;20.13;;;18.23;;
16634;SDS011;8431;52.458;9.998;2023-12-07T20:17:42;18.95;;;17.25;;
16634;SDS011;8431;52.458;9.998;2023-12-07T20:20:09;19.73;;;17.88;;
16634;SDS011;8431;52.458;9.998;2023-12-07T20:22:40;21.30;;;19.40;;
16634;SDS011;8431;52.458;9.998;2023-12-07T20:25:07;20.42;;;18.58;;
16634;SDS011;8431;52.458;9.998;2023-12-07T20:27:34;19.95;;;18.27;;
16634;SDS011;8431;52.458;9.998;2023-12-07T20:30:00;18.65;;;16.98;;
16634;SDS011;8431;52.458;9.998;2023-12-07T20:32:27;18.77;;;16.98;;
16634;SDS011;8431;52.458;9.998;2023-12-07T20:34:57;18.92;;;17.20;;
16634;SDS011;8431;52.458;9.998;2023-12-07T20:37:24;18.50;;;16.90;;
16634;SDS011;8431;52.458;9.998;2023-12-07T20:39:52;18.70;;;17.08;;
16634;SDS011;8431;52.458;9.998;2023-12-07T20:42:24;18.23;;;16.48;;
16634;SDS011;8431;52.458;9.998;2023-12-07T20:44:50;19.17;;;17.55;;
16634;SDS011;8431;52.458;9.998;2023-12-07T20:47:19;20.00;;;18.17;;
16634;SDS011;8431;52.458;9.998;2023-12-07T20:49:46;18.67;;;17.15;;
16634;SDS011;8431;52.458;9.998;2023-12-07T20:52:20;17.85;;;16.42;;
16634;SDS011;8431;52.458;9.998;2023-12-07T20:54:49;17.90;;;16.40;;
16634;SDS011;8431;52.458;9.998;2023-12-07T20:57:19;17.88;;;16.35;;
16634;SDS011;8431;52.458;9.998;2023-12-07T20:59:46;18.10;;;16.45;;
16634;SDS011;8431;52.458;9.998;2023-12-07T21:02:13;18.48;;;16.98;;
16634;SDS011;8431;52.458;9.998;2023-12-07T21:04:40;18.83;;;17.20;;
16634;SDS011;8431;52.458;9.998;2023-12-07T21:07:06;19.83;;;18.13;;
16634;SDS011;8431;52.458;9.998;2023-12-07T21:09:48;18.80;;;17.08;;
16634;SDS011;8431;52.458;9.998;2023-12-07T21:12:15;19.73;;;17.90;;
16634;SDS011;8431;52.458;9.998;2023-12-07T21:14:43;18.27;;;16.67;;
16634;SDS011;8431;52.458;9.998;2023-12-07T21:17:13;18.05;;;16.67;;
16634;SDS011;8431;52.458;9.998;2023-12-07T21:19:43;19.05;;;17.65;;
16634;SDS011;8431;52.458;9.998;2023-12-07T21:22:10;18.88;;;16.88;;
16634;SDS011;8431;52.458;9.998;2023-12-07T21:24:38;18.35;;;16.88;;
16634;SDS011;8431;52.458;9.998;2023-12-07T21:27:04;20.42;;;18.63;;
16634;SDS011;8431;52.458;9.998;2023-12-07T21:29:31;18.55;;;16.08;;
16634;SDS011;8431;52.458;9.998;2023-12-07T21:32:13;17.52;;;16.02;;
16634;SDS011;8431;52.458;9.998;2023-12-07T21:34:51;17.35;;;15.85;;
16634;SDS011;8431;52.458;9.998;2023-12-07T21:37:18;17.48;;;16.08;;
16634;SDS011;8431;52.458;9.998;2023-12-07T21:39:45;18.13;;;16.60;;
16634;SDS011;8431;52.458;9.998;2023-12-07T21:42:16;17.90;;;16.30;;
16634;SDS011;8431;52.458;9.998;2023-12-07T21:44:43;18.30;;;16.45;;
16634;SDS011;8431;52.458;9.998;2023-12-07T21:47:10;18.60;;;16.80;;
16634;SDS011;8431;52.458;9.998;2023-12-07T21:49:41;18.52;;;16.83;;
16634;SDS011;8431;52.458;9.998;2023-12-07T21:52:09;17.08;;;15.52;;
16634;SDS011;8431;52.458;9.998;2023-12-07T21:54:35;19.05;;;17.25;;
16634;SDS011;8431;52.458;9.998;2023-12-07T21:57:02;18.88;;;16.90;;
16634;SDS011;8431;52.458;9.998;2023-12-07T21:59:30;18.05;;;16.55;;
16634;SDS011;8431;52.458;9.998;2023-12-07T22:01:57;18.17;;;16.25;;
16634;SDS011;8431;52.458;9.998;2023-12-07T22:04:28;16.90;;;15.32;;
16634;SDS011;8431;52.458;9.998;2023-12-07T22:06:56;17.35;;;15.57;;
16634;SDS011;8431;52.458;9.998;2023-12-07T22:09:23;18.35;;;16.52;;
16634;SDS011;8431;52.458;9.998;2023-12-07T22:11:53;17.88;;;16.17;;
16634;SDS011;8431;52.458;9.998;2023-12-07T22:14:30;17.73;;;16.13;;
16634;SDS011;8431;52.458;9.998;2023-12-07T22:16:59;18.10;;;16.60;;
16634;SDS011;8431;52.458;9.998;2023-12-07T22:19:29;16.83;;;15.30;;
16634;SDS011;8431;52.458;9.998;2023-12-07T22:21:57;17.55;;;15.95;;
16634;SDS011;8431;52.458;9.998;2023-12-07T22:24:26;17.85;;;16.35;;
16634;SDS011;8431;52.458;9.998;2023-12-07T22:26:53;17.52;;;15.82;;
16634;SDS011;8431;52.458;9.998;2023-12-07T22:29:20;17.38;;;15.80;;
16634;SDS011;8431;52.458;9.998;2023-12-07T22:31:47;17.90;;;16.40;;
16634;SDS011;8431;52.458;9.998;2023-12-07T22:34:14;18.70;;;17.02;;
16634;SDS011;8431;52.458;9.998;2023-12-07T22:36:41;17.17;;;15.65;;
16634;SDS011;8431;52.458;9.998;2023-12-07T22:39:09;16.75;;;15.05;;
16634;SDS011;8431;52.458;9.998;2023-12-07T22:41:36;16.65;;;15.05;;
16634;SDS011;8431;52.458;9.998;2023-12-07T22:44:03;15.43;;;14.13;;
16634;SDS011;8431;52.458;9.998;2023-12-07T22:46:33;16.98;;;15.45;;
16634;SDS011;8431;52.458;9.998;2023-12-07T22:49:05;16.52;;;15.23;;
16634;SDS011;8431;52.458;9.998;2023-12-07T22:51:32;16.85;;;15.45;;
16634;SDS011;8431;52.458;9.998;2023-12-07T22:54:01;16.80;;;15.25;;
16634;SDS011;8431;52.458;9.998;2023-12-07T22:56:29;16.55;;;15.05;;
16634;SDS011;8431;52.458;9.998;2023-12-07T22:58:59;16.50;;;15.13;;
16634;SDS011;8431;52.458;9.998;2023-12-07T23:01:30;17.15;;;15.75;;
16634;SDS011;8431;52.458;9.998;2023-12-07T23:04:07;16.58;;;14.88;;
16634;SDS011;8431;52.458;9.998;2023-12-07T23:06:34;16.88;;;15.38;;
16634;SDS011;8431;52.458;9.998;2023-12-07T23:09:04;17.98;;;16.40;;
16634;SDS011;8431;52.458;9.998;2023-12-07T23:11:32;16.52;;;14.82;;
16634;SDS011;8431;52.458;9.998;2023-12-07T23:13:59;16.98;;;15.35;;
16634;SDS011;8431;52.458;9.998;2023-12-07T23:16:27;16.20;;;14.93;;
16634;SDS011;8431;52.458;9.998;2023-12-07T23:18:54;17.15;;;15.63;;
16634;SDS011;8431;52.458;9.998;2023-12-07T23:21:21;16.25;;;14.88;;
16634;SDS011;8431;52.458;9.998;2023-12-07T23:23:47;16.75;;;15.30;;
16634;SDS011;8431;52.458;9.998;2023-12-07T23:26:14;16.80;;;15.50;;
16634;SDS011;8431;52.458;9.998;2023-12-07T23:28:42;16.80;;;15.30;;
16634;SDS011;8431;52.458;9.998;2023-12-07T23:31:09;17.33;;;15.93;;
16634;SDS011;8431;52.458;9.998;2023-12-07T23:33:36;15.35;;;13.98;;
16634;SDS011;8431;52.458;9.998;2023-12-07T23:36:04;16.58;;;15.23;;
16634;SDS011;8431;52.458;9.998;2023-12-07T23:38:36;17.30;;;15.70;;
16634;SDS011;8431;52.458;9.998;2023-12-07T23:41:03;17.58;;;15.95;;
16634;SDS011;8431;52.458;9.998;2023-12-07T23:43:30;17.52;;;16.15;;
16634;SDS011;8431;52.458;9.998;2023-12-07T23:45:58;17.10;;;15.60;;
16634;SDS011;8431;52.458;9.998;2023-12-07T23:48:25;17.42;;;15.70;;
16634;SDS011;8431;52.458;9.998;2023-12-07T23:50:52;15.90;;;14.60;;
16634;SDS011;8431;52.458;9.998;2023-12-07T23:53:18;15.02;;;13.73;;
16634;SDS011;8431;52.458;9.998;2023-12-07T23:55:45;15.77;;;14.45;;
16634;SDS011;8431;52.458;9.998;2023-12-07T23:58:12;16.50;;;15.02;;
